Time;durP1;ratioP1;P1;durP2;ratioP2;P2;SDS_P1;SDS_P2;PMS_P1;PMS_P2;Temp;Humidity;BMP_temperature;BMP_pressure;BME280_temperature;BME280_humidity;BME280_pressure;Samples;Min_cycle;Max_cycle;Signal;HPM_P1;HPM_P2
2021/05/31 00:00:48;;;;;;;2.50;2.30;;;13.40;68.00;;;;;;5093322;28;20327;-69
2021/05/31 00:03:14;;;;;;;3.40;2.83;;;13.40;68.00;;;;;;5096787;28;20201;-69
2021/05/31 00:05:41;;;;;;;2.58;2.38;;;13.30;67.10;;;;;;5096923;28;20194;-69
2021/05/31 00:08:07;;;;;;;3.35;2.80;;;13.30;67.80;;;;;;5097122;28;20212;-69
2021/05/31 00:10:34;;;;;;;4.30;2.50;;;13.30;67.40;;;;;;5097013;28;20221;-69
2021/05/31 00:13:01;;;;;;;3.20;2.63;;;13.30;68.10;;;;;;5096999;28;20198;-69
2021/05/31 00:15:29;;;;;;;2.97;2.65;;;13.40;68.60;;;;;;5096636;28;20595;-69
2021/05/31 00:17:55;;;;;;;3.00;2.53;;;13.30;69.50;;;;;;5096892;28;20259;-69
2021/05/31 00:20:22;;;;;;;3.55;2.47;;;13.30;70.10;;;;;;5096859;28;20218;-69
2021/05/31 00:22:48;;;;;;;2.88;2.40;;;13.20;69.00;;;;;;5096662;28;20202;-69
2021/05/31 00:25:15;;;;;;;3.25;2.80;;;13.30;68.80;;;;;;5096720;28;20202;-69
2021/05/31 00:27:41;;;;;;;3.55;2.40;;;13.20;69.00;;;;;;5096434;28;20245;-69
2021/05/31 00:30:10;;;;;;;2.42;2.22;;;13.10;68.30;;;;;;5096408;28;20226;-69
2021/05/31 00:32:37;;;;;;;3.33;2.17;;;12.90;70.00;;;;;;5096615;28;20209;-69
2021/05/31 00:35:04;;;;;;;2.90;2.58;;;13.00;69.10;;;;;;5096274;28;20642;-69
2021/05/31 00:37:30;;;;;;;2.72;2.47;;;13.00;69.10;;;;;;5096195;28;20636;-69
2021/05/31 00:39:56;;;;;;;2.80;2.15;;;13.00;70.20;;;;;;5096361;28;20593;-69
2021/05/31 00:42:23;;;;;;;2.75;2.53;;;13.00;70.10;;;;;;5096089;28;20214;-69
2021/05/31 00:44:49;;;;;;;3.10;2.80;;;13.00;69.40;;;;;;5096327;28;20609;-69
2021/05/31 00:47:17;;;;;;;4.03;2.42;;;13.00;68.40;;;;;;5096225;28;20289;-69
2021/05/31 00:49:44;;;;;;;2.63;2.40;;;13.00;68.00;;;;;;5096295;28;20218;-69
2021/05/31 00:52:10;;;;;;;2.40;2.20;;;13.00;67.90;;;;;;5096248;28;20230;-69
2021/05/31 00:54:37;;;;;;;3.20;2.60;;;13.00;69.00;;;;;;5095973;28;20288;-69
2021/05/31 00:57:04;;;;;;;2.40;2.20;;;13.10;69.40;;;;;;5095755;28;20712;-69
2021/05/31 00:59:30;;;;;;;3.38;2.65;;;13.10;67.60;;;;;;5096109;28;20226;-69
2021/05/31 01:01:57;;;;;;;3.70;2.50;;;13.10;69.80;;;;;;5096151;28;20216;-69
2021/05/31 01:04:24;;;;;;;3.20;2.70;;;13.10;68.20;;;;;;5095836;28;20293;-69
2021/05/31 01:06:54;;;;;;;3.50;2.42;;;13.20;67.90;;;;;;5095829;28;20198;-69
2021/05/31 01:09:28;;;;;;;3.17;2.25;;;13.10;68.30;;;;;;5095936;28;20264;-69
2021/05/31 01:12:04;;;;;;;2.50;2.30;;;13.10;68.40;;;;;;5095906;28;20259;-69
2021/05/31 01:14:39;;;;;;;4.15;2.45;;;13.00;67.50;;;;;;5095017;28;20226;-69
2021/05/31 01:17:13;;;;;;;3.25;2.45;;;13.00;68.90;;;;;;5095574;28;20297;-69
2021/05/31 01:20:08;;;;;;;2.60;2.40;;;13.00;70.10;;;;;;5095851;28;20222;-69
2021/05/31 01:22:37;;;;;;;2.72;2.50;;;13.00;70.30;;;;;;5088595;28;20206;-69
2021/05/31 01:25:15;;;;;;;2.40;2.20;;;13.00;71.00;;;;;;5095383;28;20783;-69
2021/05/31 01:27:54;;;;;;;2.97;2.45;;;12.90;71.00;;;;;;5095308;28;20212;-69
2021/05/31 01:30:23;;;;;;;3.38;2.25;;;13.00;71.00;;;;;;5095284;28;20604;-69
2021/05/31 01:32:52;;;;;;;3.13;2.50;;;12.90;71.80;;;;;;5095360;28;20202;-69
2021/05/31 01:35:23;;;;;;;3.10;2.67;;;12.90;72.10;;;;;;5095375;28;20289;-70
2021/05/31 01:37:51;;;;;;;2.83;2.50;;;12.90;72.40;;;;;;5095391;28;20254;-69
2021/05/31 01:40:18;;;;;;;4.60;2.40;;;12.90;71.60;;;;;;5095323;28;20336;-69
2021/05/31 01:42:45;;;;;;;6.53;2.38;;;12.80;72.10;;;;;;5094987;28;20300;-69
2021/05/31 01:45:12;;;;;;;4.95;2.50;;;12.80;73.10;;;;;;5095001;28;20771;-69
2021/05/31 01:47:43;;;;;;;2.50;2.00;;;12.70;73.10;;;;;;5095057;28;20198;-69
2021/05/31 01:50:11;;;;;;;4.10;2.40;;;12.60;74.00;;;;;;5094859;28;20738;-69
2021/05/31 01:52:39;;;;;;;3.60;3.00;;;12.50;74.50;;;;;;5095044;28;20235;-69
2021/05/31 01:55:08;;;;;;;4.20;3.08;;;12.50;74.40;;;;;;5095057;28;20202;-69
2021/05/31 01:57:36;;;;;;;4.97;3.20;;;12.40;74.40;;;;;;5094774;28;20232;-69
2021/05/31 02:00:05;;;;;;;3.10;2.47;;;12.30;75.30;;;;;;5094701;28;20316;-69
2021/05/31 02:02:32;;;;;;;3.15;2.85;;;12.30;75.10;;;;;;5094928;28;20206;-69
2021/05/31 02:04:59;;;;;;;3.25;2.78;;;12.30;75.10;;;;;;5094770;28;20221;-69
2021/05/31 02:07:26;;;;;;;2.90;2.35;;;12.30;75.20;;;;;;5094659;28;20205;-69
2021/05/31 02:09:52;;;;;;;4.80;3.03;;;12.20;75.60;;;;;;5094656;28;20222;-69
2021/05/31 02:12:22;;;;;;;2.40;2.20;;;12.20;75.70;;;;;;5094677;28;20297;-69
2021/05/31 02:14:54;;;;;;;2.92;2.17;;;12.10;75.90;;;;;;5094449;28;20656;-69
2021/05/31 02:17:27;;;;;;;3.50;2.70;;;12.10;75.70;;;;;;5094564;28;20343;-69
2021/05/31 02:19:59;;;;;;;3.00;2.70;;;12.10;76.50;;;;;;5094442;28;20755;-69
2021/05/31 02:22:27;;;;;;;2.60;2.40;;;12.10;76.60;;;;;;5094612;28;20567;-69
2021/05/31 02:24:55;;;;;;;3.80;3.03;;;12.10;77.30;;;;;;5094388;28;20226;-69
2021/05/31 02:27:22;;;;;;;3.40;2.70;;;12.10;77.30;;;;;;5094062;28;20247;-69
2021/05/31 02:29:48;;;;;;;5.00;3.00;;;12.00;77.00;;;;;;5094684;28;20222;-69
2021/05/31 02:32:15;;;;;;;3.13;2.78;;;12.00;77.50;;;;;;5094251;28;20293;-69
2021/05/31 02:34:41;;;;;;;3.33;2.60;;;11.90;77.80;;;;;;5094322;28;20252;-69
2021/05/31 02:37:09;;;;;;;2.72;2.50;;;11.90;78.00;;;;;;5093920;28;20286;-69
2021/05/31 02:39:36;;;;;;;4.60;2.67;;;11.90;78.40;;;;;;5094225;28;20222;-69
2021/05/31 02:42:04;;;;;;;3.70;2.40;;;11.90;79.10;;;;;;5094286;28;20270;-69
2021/05/31 02:44:30;;;;;;;2.97;2.50;;;11.80;79.20;;;;;;5094094;28;20226;-69
2021/05/31 02:46:57;;;;;;;4.60;2.88;;;11.80;79.60;;;;;;5093971;28;20637;-69
2021/05/31 02:49:23;;;;;;;3.75;2.80;;;11.70;79.80;;;;;;5093965;28;20232;-69
2021/05/31 02:51:50;;;;;;;3.08;2.78;;;11.70;80.60;;;;;;5093754;28;20208;-71
2021/05/31 02:54:17;;;;;;;3.10;2.45;;;11.60;81.10;;;;;;5093738;28;20226;-71
2021/05/31 02:56:44;;;;;;;3.65;2.60;;;11.60;81.80;;;;;;5093819;28;20198;-70
2021/05/31 02:59:10;;;;;;;3.58;2.75;;;11.60;81.80;;;;;;5094116;28;20278;-70
2021/05/31 03:01:37;;;;;;;3.72;2.70;;;11.60;81.90;;;;;;5093997;28;20240;-70
2021/05/31 03:04:03;;;;;;;2.90;2.58;;;11.50;82.20;;;;;;5093782;28;20208;-70
2021/05/31 03:06:30;;;;;;;6.30;2.97;;;11.40;82.50;;;;;;5093609;28;20290;-70
2021/05/31 03:08:56;;;;;;;3.35;2.33;;;11.40;82.90;;;;;;5093767;28;20225;-70
2021/05/31 03:11:22;;;;;;;3.08;2.45;;;11.40;83.40;;;;;;5093857;28;20202;-70
2021/05/31 03:13:50;;;;;;;3.30;2.85;;;11.40;84.00;;;;;;5093820;28;20230;-70
2021/05/31 03:16:16;;;;;;;3.45;3.03;;;11.40;83.40;;;;;;5093472;28;20289;-70
2021/05/31 03:18:43;;;;;;;3.15;2.30;;;11.30;84.10;;;;;;5093575;28;20204;-70
2021/05/31 03:21:09;;;;;;;2.90;2.40;;;11.40;84.00;;;;;;5093680;28;20202;-70
2021/05/31 03:23:35;;;;;;;2.80;2.33;;;11.30;84.40;;;;;;5093656;28;20259;-70
2021/05/31 03:26:01;;;;;;;3.28;2.75;;;11.30;84.30;;;;;;5093139;28;20704;-70
2021/05/31 03:28:28;;;;;;;3.50;2.60;;;11.30;84.40;;;;;;5093505;28;20298;-70
2021/05/31 03:30:55;;;;;;;3.38;2.30;;;11.30;84.80;;;;;;5093311;28;20233;-70
2021/05/31 03:33:22;;;;;;;2.63;2.42;;;11.40;85.10;;;;;;5093333;28;20202;-70
2021/05/31 03:35:48;;;;;;;4.18;2.28;;;11.40;85.60;;;;;;5093312;28;20285;-70
2021/05/31 03:38:15;;;;;;;3.88;2.70;;;11.40;85.90;;;;;;5097280;28;20309;-70
2021/05/31 03:40:41;;;;;;;2.63;2.30;;;11.30;86.20;;;;;;5097674;28;20233;-70
2021/05/31 03:43:07;;;;;;;2.50;2.30;;;11.30;86.50;;;;;;5097427;28;20266;-70
2021/05/31 03:45:33;;;;;;;2.60;2.40;;;11.30;86.50;;;;;;5097295;28;20647;-70
2021/05/31 03:48:01;;;;;;;3.15;2.53;;;11.30;87.10;;;;;;5097454;28;20230;-70
2021/05/31 03:50:27;;;;;;;6.50;2.35;;;11.30;87.50;;;;;;5097440;28;20221;-70
2021/05/31 03:52:54;;;;;;;4.10;2.40;;;11.30;88.10;;;;;;5097420;28;20204;-70
2021/05/31 03:55:20;;;;;;;3.60;2.30;;;11.30;88.30;;;;;;5097216;28;20202;-70
2021/05/31 03:57:46;;;;;;;3.72;2.95;;;11.30;88.50;;;;;;5097179;28;20214;-70
2021/05/31 04:00:14;;;;;;;3.22;2.92;;;11.30;89.50;;;;;;5097408;28;20222;-70
2021/05/31 04:02:41;;;;;;;4.90;3.10;;;11.30;90.00;;;;;;5096937;28;20202;-70
2021/05/31 04:05:12;;;;;;;3.08;2.80;;;11.30;90.40;;;;;;5097078;28;20317;-70
2021/05/31 04:13:17;;;;;;;3.63;2.85;;;11.30;91.10;;;;;;5097069;28;20205;-70
2021/05/31 04:15:44;;;;;;;4.05;3.05;;;11.00;92.20;;;;;;5096509;28;20201;-70
2021/05/31 04:18:10;;;;;;;3.85;2.83;;;10.80;92.20;;;;;;5097158;28;20255;-70
2021/05/31 04:20:38;;;;;;;4.57;2.95;;;10.80;92.90;;;;;;5096594;28;20303;-70
2021/05/31 04:23:05;;;;;;;4.43;2.80;;;10.80;93.80;;;;;;5096844;28;20298;-70
2021/05/31 04:25:31;;;;;;;3.90;3.40;;;10.90;93.50;;;;;;5096517;28;20651;-69
2021/05/31 04:27:58;;;;;;;4.38;3.10;;;11.00;93.80;;;;;;5096659;28;20845;-70
2021/05/31 04:30:24;;;;;;;4.95;2.88;;;11.10;94.20;;;;;;5096689;28;20218;-70
2021/05/31 04:32:50;;;;;;;4.50;3.28;;;11.10;94.20;;;;;;5096693;28;20297;-70
2021/05/31 04:35:17;;;;;;;3.88;2.85;;;11.20;94.40;;;;;;5096782;28;20728;-70
2021/05/31 04:37:45;;;;;;;3.53;3.00;;;11.20;94.10;;;;;;5096391;28;20679;-70
2021/05/31 04:40:12;;;;;;;4.15;3.10;;;11.30;94.80;;;;;;5096274;28;20309;-70
2021/05/31 04:42:38;;;;;;;5.70;3.83;;;11.40;95.70;;;;;;5096224;28;20230;-70
2021/05/31 04:45:06;;;;;;;4.40;3.45;;;11.40;95.90;;;;;;5096392;28;20363;-70
2021/05/31 04:47:32;;;;;;;7.07;3.15;;;11.50;96.00;;;;;;5096034;28;20237;-70
2021/05/31 04:49:59;;;;;;;4.28;3.30;;;11.60;95.50;;;;;;5096101;28;20629;-70
2021/05/31 04:52:25;;;;;;;3.30;3.00;;;11.60;95.30;;;;;;5096090;28;20358;-70
2021/05/31 04:54:53;;;;;;;4.90;3.70;;;11.70;95.40;;;;;;5096207;28;20283;-70
2021/05/31 04:57:21;;;;;;;3.58;3.28;;;11.70;94.50;;;;;;5096052;28;20209;-70
2021/05/31 04:59:47;;;;;;;3.78;2.92;;;11.70;94.20;;;;;;5095821;28;20696;-70
2021/05/31 05:02:14;;;;;;;5.70;3.58;;;11.80;94.80;;;;;;5096099;28;20230;-70
2021/05/31 05:04:42;;;;;;;6.25;4.05;;;11.80;94.50;;;;;;5095953;28;20222;-70
2021/05/31 05:07:08;;;;;;;5.30;3.40;;;11.90;94.20;;;;;;5095605;28;20225;-70
2021/05/31 05:09:34;;;;;;;4.90;3.65;;;11.90;94.20;;;;;;5095766;28;20312;-70
2021/05/31 05:12:03;;;;;;;5.13;3.90;;;12.00;94.60;;;;;;5095659;28;20201;-70
2021/05/31 05:14:29;;;;;;;5.55;3.65;;;12.00;94.30;;;;;;5095913;28;20224;-70
2021/05/31 05:16:55;;;;;;;4.53;3.88;;;12.00;94.40;;;;;;5095930;28;20254;-70
2021/05/31 05:19:21;;;;;;;5.53;4.35;;;12.10;94.40;;;;;;5095597;28;20312;-70
2021/05/31 05:21:48;;;;;;;4.90;3.88;;;12.10;94.60;;;;;;5095761;28;20292;-70
2021/05/31 05:24:14;;;;;;;4.80;4.00;;;12.20;94.60;;;;;;5095616;28;20258;-70
2021/05/31 05:26:41;;;;;;;4.85;4.18;;;12.20;94.60;;;;;;5095263;28;20301;-70
2021/05/31 05:29:08;;;;;;;6.22;4.85;;;12.20;94.30;;;;;;5095511;28;20312;-70
2021/05/31 05:31:36;;;;;;;5.93;3.95;;;12.20;94.30;;;;;;5095602;28;20224;-70
2021/05/31 05:34:05;;;;;;;6.32;4.03;;;12.20;94.40;;;;;;5095495;28;20230;-70
2021/05/31 05:36:38;;;;;;;4.72;4.03;;;12.30;94.30;;;;;;5095090;28;20234;-70
2021/05/31 05:41:56;;;;;;;4.68;3.90;;;12.30;94.80;;;;;;5054092;28;20198;-70
2021/05/31 05:49:48;;;;;;;9.63;5.90;;;12.30;96.00;;;;;;5094877;28;20214;-70
2021/05/31 05:52:15;;;;;;;5.55;4.18;;;12.30;94.70;;;;;;5095146;28;20297;-70
2021/05/31 05:54:42;;;;;;;6.18;4.28;;;12.40;94.20;;;;;;5095204;28;20212;-70
2021/05/31 05:57:08;;;;;;;6.05;4.50;;;12.40;94.50;;;;;;5094687;28;20238;-70
2021/05/31 05:59:36;;;;;;;6.10;4.40;;;12.50;94.90;;;;;;5094726;28;20248;-70
2021/05/31 06:02:03;;;;;;;9.93;4.88;;;12.40;94.60;;;;;;5094798;28;20297;-70
2021/05/31 06:04:29;;;;;;;6.15;4.85;;;12.50;93.60;;;;;;5094835;28;20229;-70
2021/05/31 06:06:56;;;;;;;9.68;5.00;;;12.50;94.20;;;;;;5094873;28;20202;-70
2021/05/31 06:09:22;;;;;;;5.93;4.60;;;12.60;93.50;;;;;;5094678;28;20233;-70
2021/05/31 06:11:48;;;;;;;6.35;4.85;;;12.70;93.40;;;;;;5094851;28;20213;-70
2021/05/31 06:14:15;;;;;;;10.68;4.53;;;12.80;93.50;;;;;;5094945;28;20616;-70
2021/05/31 06:16:43;;;;;;;5.70;4.40;;;12.80;94.10;;;;;;5094533;28;20202;-70
2021/05/31 06:19:09;;;;;;;6.18;4.05;;;12.80;92.90;;;;;;5094588;28;20659;-70
2021/05/31 06:21:35;;;;;;;9.90;4.85;;;12.80;93.40;;;;;;5094885;28;20201;-70
2021/05/31 06:24:03;;;;;;;6.63;4.85;;;12.80;92.40;;;;;;5094694;28;20226;-70
2021/05/31 06:26:29;;;;;;;7.05;4.90;;;12.90;93.60;;;;;;5094094;28;20222;-70
2021/05/31 06:28:55;;;;;;;4.78;4.03;;;13.00;92.60;;;;;;5094435;28;20226;-70
2021/05/31 06:31:22;;;;;;;6.68;4.93;;;13.00;92.30;;;;;;5094480;28;20296;-70
2021/05/31 06:33:49;;;;;;;6.00;4.18;;;13.00;92.30;;;;;;5094231;28;20288;-70
2021/05/31 06:36:15;;;;;;;4.38;3.95;;;13.00;91.70;;;;;;5094062;28;20205;-70
2021/05/31 06:38:42;;;;;;;4.80;3.70;;;13.10;92.00;;;;;;5094230;28;20205;-70
2021/05/31 06:41:08;;;;;;;5.07;3.60;;;13.20;91.90;;;;;;5094226;28;20225;-70
2021/05/31 06:43:35;;;;;;;4.38;3.97;;;13.30;91.90;;;;;;5093887;28;20216;-70
2021/05/31 06:46:01;;;;;;;5.55;3.92;;;13.40;92.10;;;;;;5093859;28;20222;-70
2021/05/31 06:48:28;;;;;;;3.95;3.63;;;13.50;91.40;;;;;;5094133;28;20198;-70
2021/05/31 06:50:56;;;;;;;6.57;3.92;;;13.70;91.20;;;;;;5093753;28;20310;-70
2021/05/31 06:53:22;;;;;;;4.72;3.88;;;14.00;90.50;;;;;;5094173;28;20296;-70
2021/05/31 06:55:48;;;;;;;4.88;3.70;;;14.10;90.60;;;;;;5093768;28;20247;-70
2021/05/31 06:58:15;;;;;;;3.92;3.53;;;14.30;90.10;;;;;;5093953;28;20348;-70
2021/05/31 07:00:43;;;;;;;4.22;3.53;;;14.70;89.40;;;;;;5094140;28;20227;-70
2021/05/31 07:03:10;;;;;;;4.35;3.45;;;15.00;86.60;;;;;;5093952;28;20202;-70
2021/05/31 07:05:36;;;;;;;4.50;3.40;;;15.20;86.30;;;;;;5093533;28;20799;-70
2021/05/31 07:08:05;;;;;;;3.85;3.35;;;15.50;85.70;;;;;;5093766;28;20229;-70
2021/05/31 07:10:31;;;;;;;3.72;3.10;;;15.90;82.70;;;;;;5093141;28;20342;-70
2021/05/31 07:12:59;;;;;;;4.47;3.45;;;16.40;77.20;;;;;;5093286;28;20203;-70
2021/05/31 07:15:26;;;;;;;3.95;3.10;;;16.70;75.50;;;;;;5093438;28;20651;-71
2021/05/31 07:17:53;;;;;;;3.35;2.88;;;16.70;74.50;;;;;;5094013;28;20216;-70
2021/05/31 07:20:19;;;;;;;4.32;3.20;;;16.80;72.10;;;;;;5093595;28;20315;-70
2021/05/31 07:22:46;;;;;;;6.68;3.03;;;16.80;72.30;;;;;;5093889;28;20295;-71
2021/05/31 07:25:16;;;;;;;3.42;3.03;;;16.90;71.30;;;;;;5093627;28;20225;-70
2021/05/31 07:27:43;;;;;;;2.80;2.50;;;17.00;72.30;;;;;;5093536;28;20247;-70
2021/05/31 07:30:12;;;;;;;3.92;2.85;;;17.00;67.10;;;;;;5093619;28;20308;-70
2021/05/31 07:32:39;;;;;;;3.25;2.60;;;17.00;67.40;;;;;;5093599;28;20204;-70
2021/05/31 07:35:07;;;;;;;3.22;2.85;;;17.20;65.30;;;;;;5093527;28;20209;-70
2021/05/31 07:37:34;;;;;;;3.28;2.97;;;17.20;65.90;;;;;;5093133;28;20202;-70
2021/05/31 07:40:00;;;;;;;3.72;3.05;;;17.20;64.80;;;;;;5093764;28;20225;-70
2021/05/31 07:42:28;;;;;;;4.75;2.80;;;17.30;63.40;;;;;;5093160;28;20222;-70
2021/05/31 07:44:55;;;;;;;3.00;2.70;;;17.50;63.90;;;;;;5093276;28;20313;-70
2021/05/31 07:47:21;;;;;;;2.80;2.58;;;17.60;61.90;;;;;;5093310;28;20212;-70
2021/05/31 07:49:47;;;;;;;4.07;2.75;;;18.00;61.40;;;;;;5093238;28;20312;-70
2021/05/31 07:52:19;;;;;;;3.03;2.70;;;18.60;59.80;;;;;;5093425;28;20314;-71
2021/05/31 07:54:46;;;;;;;3.33;2.85;;;19.00;58.50;;;;;;5093453;28;20225;-71
2021/05/31 07:57:13;;;;;;;3.55;3.10;;;19.00;57.50;;;;;;5093078;28;20209;-71
2021/05/31 07:59:41;;;;;;;2.95;2.75;;;18.50;57.90;;;;;;5093177;28;20308;-71
2021/05/31 08:02:07;;;;;;;3.30;2.60;;;18.20;59.10;;;;;;5093447;28;20233;-70
2021/05/31 08:04:34;;;;;;;3.47;2.70;;;18.20;58.50;;;;;;5093168;28;20245;-71
2021/05/31 08:07:01;;;;;;;2.90;2.60;;;18.40;58.30;;;;;;5093118;28;20205;-71
2021/05/31 08:09:28;;;;;;;7.05;3.10;;;18.70;59.00;;;;;;5093198;28;20653;-71
2021/05/31 08:11:55;;;;;;;3.17;2.87;;;19.20;58.30;;;;;;5093019;28;20203;-71
2021/05/31 08:14:22;;;;;;;3.10;2.80;;;20.10;56.60;;;;;;5093206;28;20537;-71
2021/05/31 08:16:50;;;;;;;2.83;2.60;;;21.30;55.00;;;;;;5092869;28;20440;-71
2021/05/31 08:19:16;;;;;;;3.10;2.90;;;22.70;51.60;;;;;;5093082;28;20462;-69
2021/05/31 08:21:43;;;;;;;3.20;2.90;;;24.10;48.50;;;;;;5093156;28;20540;-69
2021/05/31 08:24:09;;;;;;;3.83;3.10;;;25.40;45.40;;;;;;5096477;28;20802;-69
2021/05/31 08:26:37;;;;;;;2.83;2.63;;;26.70;40.90;;;;;;5096483;28;20516;-69
2021/05/31 08:29:04;;;;;;;3.20;2.80;;;27.40;39.00;;;;;;5096714;28;20481;-71
2021/05/31 08:31:31;;;;;;;3.00;2.80;;;28.70;37.30;;;;;;5096438;28;20570;-69
2021/05/31 08:33:58;;;;;;;3.17;2.87;;;30.20;34.00;;;;;;5096889;28;20499;-70
2021/05/31 08:36:25;;;;;;;2.60;2.40;;;31.50;32.00;;;;;;5096313;28;20435;-70
2021/05/31 08:38:55;;;;;;;2.70;2.53;;;33.20;30.80;;;;;;5096364;28;20540;-70
2021/05/31 08:41:22;;;;;;;2.70;2.50;;;33.50;28.70;;;;;;5096502;28;20468;-71
2021/05/31 08:43:48;;;;;;;2.47;2.37;;;34.60;27.70;;;;;;5096541;28;20493;-70
2021/05/31 08:46:15;;;;;;;2.97;2.87;;;35.20;26.20;;;;;;5096102;28;20540;-70
2021/05/31 08:48:41;;;;;;;3.20;3.00;;;36.00;26.20;;;;;;5096349;28;20491;-70
2021/05/31 08:51:09;;;;;;;3.97;3.03;;;36.40;24.90;;;;;;5096151;28;20440;-70
2021/05/31 08:53:36;;;;;;;2.60;2.50;;;36.20;24.40;;;;;;5096710;28;20436;-70
2021/05/31 08:56:03;;;;;;;2.93;2.73;;;36.10;24.60;;;;;;5096013;28;20476;-70
2021/05/31 08:58:29;;;;;;;4.60;2.80;;;35.90;24.30;;;;;;5096073;28;20440;-70
2021/05/31 09:00:56;;;;;;;2.60;2.40;;;36.80;25.40;;;;;;5096201;28;20563;-70
2021/05/31 09:03:22;;;;;;;3.20;2.90;;;37.20;23.70;;;;;;5096114;28;20525;-70
2021/05/31 09:05:49;;;;;;;3.00;2.53;;;37.50;24.10;;;;;;5095692;28;20523;-70
2021/05/31 09:08:19;;;;;;;2.40;2.30;;;37.30;23.70;;;;;;5096071;28;20444;-70
2021/05/31 09:10:47;;;;;;;2.47;2.27;;;37.50;23.70;;;;;;5095864;28;20468;-70
2021/05/31 09:13:25;;;;;;;2.80;2.60;;;37.30;23.20;;;;;;5095864;28;20440;-70
2021/05/31 09:16:03;;;;;;;2.90;2.70;;;37.00;23.90;;;;;;5095650;28;20484;-70
2021/05/31 09:18:29;;;;;;;2.90;2.70;;;37.40;23.30;;;;;;5095591;28;20573;-70
2021/05/31 09:20:57;;;;;;;2.50;2.40;;;38.20;22.80;;;;;;5096048;28;20460;-70
2021/05/31 09:23:34;;;;;;;2.30;2.20;;;38.40;22.50;;;;;;5095771;28;20447;-70
2021/05/31 09:26:04;;;;;;;4.97;2.80;;;38.60;21.80;;;;;;5095290;28;20977;-70
2021/05/31 09:28:30;;;;;;;3.00;2.80;;;38.40;22.00;;;;;;5095666;28;20501;-71
2021/05/31 09:30:58;;;;;;;2.93;2.73;;;38.90;22.10;;;;;;5095599;28;20460;-70
2021/05/31 09:33:25;;;;;;;2.50;2.40;;;39.00;21.70;;;;;;5095667;28;20523;-70
2021/05/31 09:35:51;;;;;;;2.97;2.77;;;38.60;21.40;;;;;;5094498;28;20486;-70
2021/05/31 09:38:18;;;;;;;2.60;2.40;;;38.60;22.00;;;;;;5095343;28;20452;-70
2021/05/31 09:40:54;;;;;;;2.70;2.60;;;38.80;21.80;;;;;;5095351;28;20965;-70
2021/05/31 09:43:21;;;;;;;3.10;2.57;;;38.10;22.10;;;;;;5095147;28;20462;-71
2021/05/31 09:45:49;;;;;;;2.57;2.47;;;38.20;21.90;;;;;;5095111;28;20440;-71
2021/05/31 09:48:16;;;;;;;2.90;2.70;;;38.40;21.90;;;;;;5095111;28;20931;-70
2021/05/31 09:50:53;;;;;;;2.90;2.63;;;38.70;21.60;;;;;;5094905;28;20468;-71
2021/05/31 09:53:19;;;;;;;4.40;3.13;;;38.10;21.60;;;;;;5095783;28;20487;-70
2021/05/31 09:55:47;;;;;;;2.73;2.53;;;38.00;22.00;;;;;;5094824;28;20484;-70
2021/05/31 09:58:17;;;;;;;3.07;2.87;;;38.00;22.50;;;;;;5095036;28;20871;-70
2021/05/31 10:00:47;;;;;;;2.83;2.73;;;38.40;22.10;;;;;;5095079;28;20503;-70
2021/05/31 10:06:12;;;;;;;2.63;2.53;;;38.70;21.40;;;;;;5094382;28;20428;-71
2021/05/31 10:08:41;;;;;;;2.87;2.67;;;37.50;22.20;;;;;;5094874;28;20439;-70
2021/05/31 10:11:08;;;;;;;2.60;2.50;;;37.00;22.80;;;;;;5094855;28;20452;-70
2021/05/31 10:13:40;;;;;;;2.57;2.47;;;37.60;22.60;;;;;;5094737;28;20474;-71
2021/05/31 10:16:07;;;;;;;3.30;3.10;;;38.50;21.90;;;;;;5094486;28;20897;-71
2021/05/31 10:18:37;;;;;;;3.40;3.20;;;38.90;21.40;;;;;;5094658;28;20443;-71
2021/05/31 10:21:04;;;;;;;3.00;2.80;;;38.90;21.90;;;;;;5094436;28;20938;-71
2021/05/31 10:23:32;;;;;;;3.50;3.20;;;38.60;22.10;;;;;;5094646;28;20784;-71
2021/05/31 10:26:01;;;;;;;2.77;2.67;;;39.10;21.80;;;;;;5094246;28;20444;-71
2021/05/31 10:28:30;;;;;;;2.60;2.50;;;37.80;21.50;;;;;;5094213;28;20505;-70
2021/05/31 10:31:03;;;;;;;3.10;2.80;;;36.20;22.90;;;;;;5094158;28;20989;-70
2021/05/31 10:33:30;;;;;;;3.03;2.83;;;34.90;24.00;;;;;;5094401;28;20802;-70
2021/05/31 10:36:09;;;;;;;2.90;2.70;;;33.50;24.90;;;;;;5094118;28;20483;-70
2021/05/31 10:38:37;;;;;;;3.07;2.87;;;32.30;26.60;;;;;;5094057;28;20529;-70
2021/05/31 10:41:12;;;;;;;3.27;3.00;;;31.60;26.90;;;;;;5094313;28;20543;-69
2021/05/31 10:43:43;;;;;;;3.73;2.93;;;30.70;28.00;;;;;;5094045;28;20457;-69
2021/05/31 10:46:17;;;;;;;3.70;3.40;;;29.80;28.50;;;;;;5093880;28;20446;-69
2021/05/31 10:48:45;;;;;;;3.20;3.00;;;28.50;29.50;;;;;;5094087;28;20451;-69
2021/05/31 10:51:14;;;;;;;3.60;3.30;;;27.40;31.10;;;;;;5094047;28;20487;-69
2021/05/31 10:53:41;;;;;;;3.90;3.60;;;26.40;32.80;;;;;;5094051;28;20440;-69
2021/05/31 10:56:09;;;;;;;3.63;3.33;;;25.50;33.70;;;;;;5093711;28;20576;-69
2021/05/31 10:58:37;;;;;;;4.93;3.50;;;24.80;35.70;;;;;;5094196;28;20471;-69
2021/05/31 11:01:07;;;;;;;3.83;3.40;;;24.50;35.20;;;;;;5093965;28;20449;-69
2021/05/31 11:03:46;;;;;;;3.80;3.50;;;24.20;36.30;;;;;;5093865;28;20453;-69
2021/05/31 11:06:13;;;;;;;3.00;2.80;;;24.20;37.00;;;;;;5093563;28;20436;-69
2021/05/31 11:08:51;;;;;;;3.90;3.60;;;24.50;37.10;;;;;;5093775;28;20438;-68
2021/05/31 11:11:26;;;;;;;3.97;3.67;;;24.70;37.70;;;;;;5093936;28;20433;-71
2021/05/31 11:13:53;;;;;;;3.97;3.10;;;24.90;36.60;;;;;;5093738;28;20441;-69
2021/05/31 11:16:20;;;;;;;3.47;3.17;;;24.90;36.80;;;;;;5093436;28;20905;-69
2021/05/31 11:18:49;;;;;;;3.43;3.13;;;25.10;36.20;;;;;;5093649;28;20449;-69
2021/05/31 11:21:30;;;;;;;3.73;3.43;;;25.20;36.60;;;;;;5093754;28;20447;-69
2021/05/31 11:24:03;;;;;;;3.50;3.20;;;25.40;35.80;;;;;;5093899;28;20531;-69
2021/05/31 11:26:33;;;;;;;3.93;3.63;;;25.40;35.70;;;;;;5093353;28;20442;-69
2021/05/31 11:29:01;;;;;;;3.53;3.23;;;25.40;35.00;;;;;;5093419;28;20478;-69
2021/05/31 11:31:28;;;;;;;3.17;2.97;;;25.40;35.40;;;;;;5093647;28;20545;-69
2021/05/31 11:33:57;;;;;;;3.10;2.90;;;25.30;35.70;;;;;;5093628;28;20859;-69
2021/05/31 11:36:31;;;;;;;3.57;3.27;;;25.20;35.00;;;;;;5093106;28;20574;-69
2021/05/31 11:38:58;;;;;;;3.50;3.20;;;25.10;34.80;;;;;;5093459;28;20498;-69
2021/05/31 11:41:41;;;;;;;3.20;3.00;;;25.10;35.40;;;;;;5093222;28;20456;-69
2021/05/31 11:44:09;;;;;;;3.50;3.20;;;24.90;36.30;;;;;;5093587;28;20449;-69
2021/05/31 11:46:50;;;;;;;3.47;2.70;;;24.90;36.40;;;;;;5093074;28;20459;-69
2021/05/31 11:49:19;;;;;;;3.03;2.83;;;24.80;36.20;;;;;;5093325;28;20466;-70
2021/05/31 11:51:56;;;;;;;3.10;2.90;;;25.00;35.50;;;;;;5093162;28;20457;-69
2021/05/31 11:54:23;;;;;;;3.30;3.10;;;25.00;35.50;;;;;;5093294;28;20897;-69
2021/05/31 11:56:49;;;;;;;3.57;3.27;;;25.00;36.90;;;;;;5093131;28;20528;-69
2021/05/31 11:59:16;;;;;;;3.90;3.60;;;25.00;36.60;;;;;;5097176;28;20473;-71
2021/05/31 12:01:50;;;;;;;3.40;3.10;;;25.00;36.90;;;;;;5097445;28;20474;-71
2021/05/31 12:04:18;;;;;;;3.70;3.40;;;25.10;37.10;;;;;;5097531;28;20526;-71
2021/05/31 12:06:44;;;;;;;4.10;3.77;;;25.00;36.30;;;;;;5097155;28;20446;-70
2021/05/31 12:09:17;;;;;;;3.40;3.07;;;24.70;35.50;;;;;;5097151;28;20801;-71
2021/05/31 12:11:43;;;;;;;3.50;3.20;;;24.50;36.30;;;;;;5097195;28;20532;-70
2021/05/31 12:14:11;;;;;;;3.40;3.13;;;24.30;36.50;;;;;;5097443;28;20451;-70
2021/05/31 12:16:37;;;;;;;3.37;2.90;;;24.20;37.00;;;;;;5096617;28;20489;-71
2021/05/31 12:19:14;;;;;;;3.20;2.90;;;24.20;36.40;;;;;;5096946;28;20568;-71
2021/05/31 12:21:42;;;;;;;3.00;2.80;;;23.80;36.20;;;;;;5096735;28;20468;-71
2021/05/31 12:24:09;;;;;;;3.03;2.83;;;23.90;38.30;;;;;;5096768;28;20522;-71
2021/05/31 12:26:38;;;;;;;3.53;3.23;;;23.80;36.30;;;;;;5096562;28;20489;-70
2021/05/31 12:29:10;;;;;;;3.07;2.80;;;23.80;35.40;;;;;;5096687;28;20543;-71
2021/05/31 12:31:36;;;;;;;3.60;3.30;;;24.10;35.20;;;;;;5096571;28;20948;-71
2021/05/31 12:34:03;;;;;;;3.13;2.90;;;24.40;35.10;;;;;;5097051;28;20494;-71
2021/05/31 12:36:30;;;;;;;2.60;2.40;;;24.60;34.40;;;;;;5096193;28;20853;-71
2021/05/31 12:38:58;;;;;;;3.33;3.03;;;24.90;32.50;;;;;;5096551;28;20533;-71
2021/05/31 12:41:25;;;;;;;2.93;2.73;;;25.00;33.40;;;;;;5096138;28;20451;-71
2021/05/31 12:43:51;;;;;;;3.23;3.00;;;25.00;34.30;;;;;;5096588;28;20558;-71
2021/05/31 12:46:18;;;;;;;3.10;2.90;;;25.10;34.30;;;;;;5096362;28;20530;-71
2021/05/31 12:48:48;;;;;;;3.77;2.93;;;25.10;34.70;;;;;;5096207;28;20470;-71
2021/05/31 12:51:15;;;;;;;4.00;3.20;;;25.00;34.60;;;;;;5096461;28;20453;-71
2021/05/31 12:53:41;;;;;;;3.00;2.80;;;25.10;34.80;;;;;;5096603;28;20443;-70
2021/05/31 12:56:10;;;;;;;3.63;2.90;;;25.20;34.60;;;;;;5095908;28;20572;-71
2021/05/31 12:58:36;;;;;;;4.37;3.03;;;25.00;34.20;;;;;;5096258;28;20450;-71
2021/05/31 13:01:03;;;;;;;2.80;2.60;;;25.00;33.20;;;;;;5096286;28;20945;-71
2021/05/31 13:03:30;;;;;;;3.63;2.80;;;24.90;33.60;;;;;;5096002;28;20885;-71
2021/05/31 13:05:57;;;;;;;3.47;3.17;;;24.90;34.50;;;;;;5095842;28;20501;-71
2021/05/31 13:08:23;;;;;;;3.10;2.80;;;25.00;35.50;;;;;;5095643;28;20545;-71